.
WxDataArchive / Data Records for 2014-01-28
2014-01-27 January 2014 2014-01-29

Data Records for Tuesday, 28 January 2014

Time	Temp	Chill	HIndex	Humid	Dewpt	 Wind 	HiWind	WindDir	Rain 	Barom 
-----	----	-----	------	-----	-----	------	------	-------	-----	----- 
00:00	-7.5	-7.5	-7.5	61	-17.3	0	2	248	0.00	30.454 
00:05	-7.5	-7.5	-7.5	61	-17.3	1	3	248	0.00	30.454 
00:10	-7.5	-7.5	-7.5	61	-17.3	1	3	248	0.00	30.454 
00:15	-7.5	-7.5	-7.5	61	-17.3	1	3	248	0.00	30.456 
00:20	-7.5	-7.5	-7.5	61	-17.3	1	3	248	0.00	30.456 
00:25	-7.5	-7.5	-7.5	61	-17.3	1	3	248	0.00	30.456 
00:30	-7.5	-7.5	-7.5	61	-17.3	1	3	248	0.00	30.455 
00:35	-7.5	-7.5	-7.5	61	-17.3	1	3	248	0.00	30.455 
00:40	-7.7	-7.7	-7.7	60	-17.8	1	3	248	0.00	30.455 
00:45	-7.7	-7.7	-7.7	60	-17.8	1	5	248	0.00	30.458 
00:50	-7.7	-7.7	-7.7	60	-17.8	1	3	248	0.00	30.458 
00:55	-7.7	-7.7	-7.7	60	-17.8	0	2	248	0.00	30.458 
01:00	-7.9	-7.9	-7.9	60	-18.0	0	2	248	0.00	30.460 
01:05	-7.9	-7.9	-7.9	61	-17.7	1	3	248	0.00	30.460 
01:10	-7.9	-7.9	-7.9	61	-17.7	1	2	248	0.00	30.460 
01:15	-7.9	-7.9	-7.9	61	-17.7	1	4	248	0.00	30.457 
01:20	-7.9	-7.9	-7.9	61	-17.7	1	4	248	0.00	30.457 
01:25	-7.9	-7.9	-7.9	61	-17.7	1	4	225	0.00	30.457 
01:30	-8.2	-8.2	-8.2	61	-18.0	1	3	248	0.00	30.457 
01:35	-8.2	-8.2	-8.2	61	-18.0	1	4	248	0.00	30.457 
01:40	-8.2	-8.2	-8.2	61	-18.0	1	3	248	0.00	30.457 
01:45	-8.2	-8.2	-8.2	61	-18.0	1	2	248	0.00	30.455 
01:50	-8.4	-8.4	-8.4	61	-18.2	1	3	248	0.00	30.455 
01:55	-8.4	-8.4	-8.4	62	-17.9	1	3	248	0.00	30.455 
02:00	-8.4	-8.4	-8.4	61	-18.2	1	2	248	0.00	30.457 
02:05	-8.4	-8.4	-8.4	62	-17.9	0	2	248	0.00	30.457 
02:10	-8.4	-8.4	-8.4	62	-17.9	1	3	248	0.00	30.457 
02:15	-8.6	-8.6	-8.6	61	-18.4	0	2	248	0.00	30.458 
02:20	-8.6	-8.6	-8.6	62	-18.1	0	1	248	0.00	30.458 
02:25	-8.9	-8.9	-8.9	62	-18.3	0	1	248	0.00	30.458 
02:30	-8.9	-8.9	-8.9	62	-18.3	0	3	248	0.00	30.457 
02:35	-8.9	-8.9	-8.9	62	-18.3	0	3	248	0.00	30.457 
02:40	-8.9	-8.9	-8.9	62	-18.3	0	1	248	0.00	30.457 
02:45	-8.9	-8.9	-8.9	62	-18.3	0	1	248	0.00	30.458 
02:50	-9.1	-9.1	-9.1	62	-18.5	0	2	248	0.00	30.458 
02:55	-9.1	-9.1	-9.1	62	-18.5	0	2	248	0.00	30.458 
03:00	-9.1	-9.1	-9.1	62	-18.5	0	1	248	0.00	30.461 
03:05	-9.1	-9.1	-9.1	62	-18.5	0	2	248	0.00	30.461 
03:10	-9.1	-9.1	-9.1	62	-18.5	0	1	248	0.00	30.461 
03:15	-9.3	-9.3	-9.3	62	-18.7	0	1	248	0.00	30.464 
03:20	-9.3	-9.3	-9.3	62	-18.7	0	2	248	0.00	30.464 
03:25	-9.3	-9.3	-9.3	62	-18.7	0	1	248	0.00	30.464 
03:30	-9.3	-9.3	-9.3	62	-18.7	0	2	248	0.00	30.463 
03:35	-9.6	-9.6	-9.6	62	-19.0	0	2	248	0.00	30.463 
03:40	-9.6	-9.6	-9.6	62	-19.0	0	0	---	0.00	30.463 
03:45	-9.6	-9.6	-9.6	62	-19.0	0	1	248	0.00	30.459 
03:50	-9.8	-9.8	-9.8	62	-19.2	0	2	248	0.00	30.459 
03:55	-9.8	-9.8	-9.8	63	-18.9	0	1	248	0.00	30.459 
04:00	-9.8	-9.8	-9.8	63	-18.9	0	1	248	0.00	30.458 
04:05	-9.8	-9.8	-9.8	63	-18.9	0	1	248	0.00	30.458 
04:10	-9.8	-9.8	-9.8	63	-18.9	0	1	248	0.00	30.458 
04:15	-10.0	-10.0	-10.0	63	-19.1	0	1	248	0.00	30.455 
04:20	-10.0	-10.0	-10.0	63	-19.1	0	1	248	0.00	30.455 
04:25	-10.0	-10.0	-10.0	63	-19.1	0	1	248	0.00	30.455 
04:30	-10.0	-10.0	-10.0	63	-19.1	0	1	248	0.00	30.446 
04:35	-10.3	-10.3	-10.3	63	-19.4	0	1	248	0.00	30.446 
04:40	-10.3	-10.3	-10.3	64	-19.1	0	2	248	0.00	30.446 
04:45	-10.3	-10.3	-10.3	64	-19.1	0	1	248	0.00	30.459 
04:50	-10.3	-10.3	-10.3	64	-19.1	0	0	---	0.00	30.459 
04:55	-10.3	-10.3	-10.3	64	-19.1	0	1	248	0.00	30.459 
05:00	-10.5	-10.5	-10.5	64	-19.3	0	1	248	0.00	30.449 
05:05	-10.5	-10.5	-10.5	64	-19.3	0	1	248	0.00	30.449 
05:10	-10.5	-10.5	-10.5	64	-19.3	0	0	---	0.00	30.449 
05:15	-10.7	-10.7	-10.7	64	-19.5	0	0	---	0.00	30.453 
05:20	-10.7	-10.7	-10.7	64	-19.5	0	2	248	0.00	30.453 
05:25	-10.7	-10.7	-10.7	65	-19.2	0	2	248	0.00	30.453 
05:30	-10.7	-10.7	-10.7	65	-19.2	0	2	248	0.00	30.478 
05:35	-10.7	-10.7	-10.7	65	-19.2	0	1	248	0.00	30.478 
05:40	-10.7	-10.7	-10.7	65	-19.2	0	2	248	0.00	30.478 
05:45	-10.7	-10.7	-10.7	65	-19.2	0	2	248	0.00	30.479 
05:50	-10.7	-10.7	-10.7	64	-19.5	0	2	248	0.00	30.479 
05:55	-10.7	-10.7	-10.7	64	-19.5	0	1	248	0.00	30.479 
06:00	-10.7	-10.7	-10.7	64	-19.5	0	2	248	0.00	30.477 
06:05	-10.7	-10.7	-10.7	64	-19.5	0	1	248	0.00	30.477 
06:10	-11.0	-11.0	-11.0	64	-19.7	0	1	248	0.00	30.477 
06:15	-11.0	-11.0	-11.0	64	-19.7	0	2	248	0.00	30.484 
06:20	-11.0	-11.0	-11.0	64	-19.7	0	1	248	0.00	30.484 
06:25	-11.0	-11.0	-11.0	64	-19.7	0	1	248	0.00	30.484 
06:30	-11.2	-11.2	-11.2	64	-19.9	0	1	248	0.00	30.468 
06:35	-11.2	-11.2	-11.2	64	-19.9	0	1	248	0.00	30.468 
06:40	-11.2	-11.2	-11.2	64	-19.9	0	1	248	0.00	30.468 
06:45	-11.5	-11.5	-11.5	65	-19.9	0	1	248	0.00	30.481 
06:50	-11.5	-11.5	-11.5	65	-19.9	0	1	248	0.00	30.481 
06:55	-11.7	-11.7	-11.7	65	-20.1	0	1	248	0.00	30.481 
07:00	-11.7	-11.7	-11.7	65	-20.1	0	1	248	0.00	30.493 
07:05	-11.7	-11.7	-11.7	65	-20.1	0	2	248	0.00	30.493 
07:10	-11.7	-11.7	-11.7	65	-20.1	0	1	248	0.00	30.493 
07:15	-11.7	-11.7	-11.7	65	-20.1	0	0	---	0.00	30.497 
07:20	-12.0	-12.0	-12.0	65	-20.4	0	1	248	0.00	30.497 
07:25	-12.0	-12.0	-12.0	65	-20.4	0	1	248	0.00	30.497 
07:30	-12.0	-12.0	-12.0	65	-20.4	0	1	248	0.00	30.494 
07:35	-12.2	-12.2	-12.2	65	-20.6	0	1	248	0.00	30.494 
07:40	-12.2	-12.2	-12.2	66	-20.3	0	1	248	0.00	30.494 
07:45	-12.2	-12.2	-12.2	66	-20.3	0	1	248	0.00	30.510 
07:50	-12.2	-12.2	-12.2	66	-20.3	0	1	248	0.00	30.510 
07:55	-12.2	-12.2	-12.2	66	-20.3	0	1	248	0.00	30.510 
08:00	-12.2	-12.2	-12.2	66	-20.3	0	1	248	0.00	30.501 
08:05	-12.2	-12.2	-12.2	66	-20.3	0	2	248	0.00	30.501 
08:10	-12.2	-12.2	-12.2	67	-20.0	0	2	248	0.00	30.501 
08:15	-12.2	-12.2	-12.2	66	-20.3	0	1	248	0.00	30.494 
08:20	-12.2	-12.2	-12.2	67	-20.0	0	0	---	0.00	30.494 
08:25	-12.2	-12.2	-12.2	67	-20.0	0	1	248	0.00	30.494 
08:30	-12.0	-12.0	-12.0	67	-19.8	0	1	248	0.00	30.500 
08:35	-11.7	-11.7	-11.7	67	-19.5	0	2	248	0.00	30.500 
08:40	-11.5	-11.5	-11.5	67	-19.3	0	1	248	0.00	30.500 
08:45	-11.2	-11.2	-11.2	67	-19.1	0	1	248	0.00	30.496 
08:50	-11.0	-11.0	-11.0	67	-18.9	0	2	248	0.00	30.496 
08:55	-10.7	-10.7	-10.7	66	-18.9	0	2	248	0.00	30.496 
09:00	-10.3	-10.3	-10.3	66	-18.5	0	2	248	0.00	30.510 
09:05	-10.3	-10.3	-10.3	65	-18.8	1	5	248	0.00	30.510 
09:10	-10.0	-10.0	-10.0	65	-18.5	0	2	248	0.00	30.510 
09:15	-10.0	-10.0	-10.0	65	-18.5	0	3	248	0.00	30.503 
09:20	-9.8	-9.8	-9.8	65	-18.3	1	4	248	0.00	30.503 
09:25	-9.6	-9.6	-9.6	64	-18.4	0	2	248	0.00	30.503 
09:30	-9.3	-9.3	-9.3	64	-18.1	0	2	248	0.00	30.503 
09:35	-9.1	-9.1	-9.1	64	-17.9	1	3	248	0.00	30.503 
09:40	-8.6	-8.6	-8.6	63	-17.8	1	3	248	0.00	30.503 
09:45	-8.4	-8.4	-8.4	63	-17.6	1	3	248	0.00	30.515 
09:50	-7.9	-7.9	-7.9	62	-17.4	0	2	248	0.00	30.515 
09:55	-7.7	-7.7	-7.7	62	-17.2	1	3	248	0.00	30.515 
10:00	-7.2	-7.2	-7.2	61	-17.0	0	1	248	0.00	30.507 
10:05	-6.8	-6.8	-6.8	61	-16.7	0	2	248	0.00	30.507 
10:10	-6.8	-6.8	-6.8	60	-17.0	1	3	248	0.00	30.507 
10:15	-6.5	-6.5	-6.5	60	-16.7	0	2	248	0.00	30.501 
10:20	-6.3	-6.3	-6.3	60	-16.5	0	2	248	0.00	30.501 
10:25	-5.6	-5.6	-5.6	59	-16.2	0	3	248	0.00	30.501 
10:30	-5.4	-5.4	-5.4	58	-16.3	1	2	248	0.00	30.499 
10:35	-5.0	-5.0	-5.0	58	-15.9	0	2	248	0.00	30.499 
10:40	-4.6	-4.6	-4.6	58	-15.6	0	2	248	0.00	30.499 
10:45	-4.1	-4.1	-4.1	57	-15.4	0	1	248	0.00	30.493 
10:50	-3.7	-3.7	-3.7	56	-15.4	0	1	248	0.00	30.493 
10:55	-3.3	-3.3	-3.3	56	-15.0	0	2	248	0.00	30.493 
11:00	-3.1	-3.1	-3.1	55	-15.2	0	2	248	0.00	30.491 
11:05	-2.6	-2.6	-2.6	54	-15.1	0	3	248	0.00	30.491 
11:10	-2.4	-2.4	-2.4	54	-14.9	1	3	248	0.00	30.491 
11:15	-2.0	-2.0	-2.0	53	-14.9	1	2	248	0.00	30.486 
11:20	-1.8	-1.8	-1.8	53	-14.7	0	2	248	0.00	30.486 
11:25	-1.6	-1.6	-1.6	53	-14.5	0	2	248	0.00	30.486 
11:30	-1.2	-1.2	-1.2	52	-14.5	0	1	248	0.00	30.481 
11:35	-1.0	-1.0	-1.0	52	-14.3	0	3	248	0.00	30.481 
11:40	-0.6	-0.6	-0.6	51	-14.3	0	3	248	0.00	30.481 
11:45	-0.2	-0.2	-0.2	51	-14.0	0	1	248	0.00	30.476 
11:50	0.1	0.1	0.1	50	-14.1	0	2	248	0.00	30.476 
11:55	0.5	0.5	0.5	50	-13.7	0	1	248	0.00	30.476 
12:00	0.7	0.7	0.7	49	-13.9	0	2	248	0.00	30.467 
12:05	0.9	0.9	0.9	49	-13.7	0	1	248	0.00	30.467 
12:10	1.3	1.3	1.3	48	-13.8	0	3	248	0.00	30.467 
12:15	1.5	1.5	1.5	48	-13.6	0	2	248	0.00	30.460 
12:20	1.8	1.8	1.8	48	-13.3	1	2	248	0.00	30.460 
12:25	1.8	1.8	1.8	46	-14.2	2	4	248	0.00	30.460 
12:30	1.8	1.8	1.8	46	-14.2	1	3	270	0.00	30.458 
12:35	1.8	1.8	1.8	45	-14.6	1	4	248	0.00	30.458 
12:40	2.0	2.0	2.0	46	-14.0	1	3	270	0.00	30.458 
12:45	2.2	2.2	2.2	47	-13.4	1	4	270	0.00	30.445 
12:50	2.4	2.4	2.4	47	-13.2	0	3	248	0.00	30.445 
12:55	2.8	2.8	2.8	45	-13.7	1	3	248	0.00	30.445 
13:00	2.8	2.8	2.8	44	-14.1	2	4	270	0.00	30.439 
13:05	2.8	2.8	2.8	44	-14.1	2	4	270	0.00	30.439 
13:10	2.8	2.8	2.8	44	-14.1	2	4	248	0.00	30.439 
13:15	2.6	2.6	2.6	43	-14.7	1	3	248	0.00	30.429 
13:20	2.8	2.8	2.8	44	-14.1	2	4	248	0.00	30.429 
13:25	2.8	2.8	2.8	44	-14.1	1	3	292	0.00	30.429 
13:30	2.6	2.6	2.6	44	-14.3	2	4	270	0.00	30.425 
13:35	2.8	2.8	2.8	45	-13.7	1	3	292	0.00	30.425 
13:40	2.8	2.8	2.8	45	-13.7	2	4	292	0.00	30.425 
13:45	3.0	3.0	3.0	45	-13.5	1	3	248	0.00	30.421 
13:50	3.0	3.0	3.0	45	-13.5	2	4	270	0.00	30.421 
13:55	3.2	3.2	3.2	45	-13.3	1	4	248	0.00	30.421 
14:00	3.2	3.2	3.2	44	-13.7	1	4	248	0.00	30.415 
14:05	3.0	3.0	3.0	45	-13.5	2	5	248	0.00	30.415 
14:10	3.0	3.0	3.0	45	-13.5	1	3	270	0.00	30.415 
14:15	3.0	3.0	3.0	45	-13.5	1	2	270	0.00	30.414 
14:20	3.2	3.2	3.2	46	-12.9	1	3	292	0.00	30.414 
14:25	3.2	3.2	3.2	46	-12.9	1	5	292	0.00	30.414 
14:30	3.4	3.4	3.4	46	-12.7	1	6	270	0.00	30.409 
14:35	3.4	3.4	3.4	45	-13.1	2	3	248	0.00	30.409 
14:40	3.4	3.4	3.4	45	-13.1	1	3	248	0.00	30.409 
14:45	3.5	3.5	3.5	44	-13.5	1	4	248	0.00	30.398 
14:50	3.7	3.7	3.7	45	-12.8	1	4	248	0.00	30.398 
14:55	3.7	3.7	3.7	45	-12.8	1	7	248	0.00	30.398 
15:00	3.7	3.7	3.7	44	-13.3	1	5	248	0.00	30.394 
15:05	3.7	3.7	3.7	44	-13.3	1	3	248	0.00	30.394 
15:10	3.7	3.7	3.7	44	-13.3	1	4	248	0.00	30.394 
15:15	3.7	3.7	3.7	44	-13.3	2	3	248	0.00	30.397 
15:20	3.9	3.9	3.9	44	-13.1	1	3	248	0.00	30.397 
15:25	3.9	3.9	3.9	44	-13.1	1	4	248	0.00	30.397 
15:30	4.1	4.1	4.1	43	-13.4	2	7	248	0.00	30.398 
15:35	4.3	4.3	4.3	43	-13.2	1	4	248	0.00	30.398 
15:40	4.3	4.3	4.3	43	-13.2	2	4	248	0.00	30.398 
15:45	4.5	4.5	4.5	43	-13.0	2	4	248	0.00	30.400 
15:50	4.3	4.3	4.3	43	-13.2	2	5	248	0.00	30.400 
15:55	4.1	4.1	4.1	43	-13.4	2	4	248	0.00	30.400 
16:00	3.9	3.9	3.9	44	-13.1	1	7	248	0.00	30.397 
16:05	4.1	4.1	4.1	44	-12.9	1	3	248	0.00	30.397 
16:10	4.1	4.1	4.1	43	-13.4	1	6	248	0.00	30.397 
16:15	4.1	4.1	4.1	43	-13.4	1	4	248	0.00	30.394 
16:20	4.1	4.1	4.1	43	-13.4	2	5	248	0.00	30.394 
16:25	4.1	4.1	4.1	44	-12.9	1	5	248	0.00	30.394 
16:30	4.1	4.1	4.1	43	-13.4	1	4	248	0.00	30.394 
16:35	3.9	3.9	3.9	44	-13.1	2	7	248	0.00	30.394 
16:40	3.9	3.9	3.9	44	-13.1	1	4	248	0.00	30.394 
16:45	3.7	3.7	3.7	45	-12.8	2	6	248	0.00	30.390 
16:50	3.7	3.7	3.7	45	-12.8	1	3	248	0.00	30.390 
16:55	3.5	3.5	3.5	45	-13.0	2	5	248	0.00	30.390 
17:00	3.5	3.5	3.5	46	-12.6	1	4	248	0.00	30.387 
17:05	3.4	3.4	3.4	46	-12.7	1	3	248	0.00	30.387 
17:10	3.2	3.2	3.2	46	-12.9	1	4	248	0.00	30.387 
17:15	3.2	3.2	3.2	47	-12.4	1	4	248	0.00	30.387 
17:20	3.2	3.2	3.2	47	-12.4	1	3	248	0.00	30.387 
17:25	3.0	3.0	3.0	47	-12.6	1	3	248	0.00	30.387 
17:30	2.8	2.8	2.8	48	-12.4	1	4	248	0.00	30.380 
17:35	2.6	2.6	2.6	48	-12.6	1	3	248	0.00	30.380 
17:40	2.4	2.4	2.4	49	-12.3	0	2	248	0.00	30.380 
17:45	2.2	2.2	2.2	49	-12.5	0	3	248	0.00	30.374 
17:50	2.0	2.0	2.0	50	-12.3	0	2	248	0.00	30.374 
17:55	2.0	2.0	2.0	50	-12.3	0	1	248	0.00	30.374 
18:00	1.8	1.8	1.8	50	-12.5	0	2	248	0.00	30.375 
18:05	1.7	1.7	1.7	51	-12.2	0	2	248	0.00	30.375 
18:10	1.7	1.7	1.7	51	-12.2	0	2	248	0.00	30.375 
18:15	1.5	1.5	1.5	51	-12.4	0	2	248	0.00	30.375 
18:20	1.3	1.3	1.3	52	-12.2	0	1	248	0.00	30.375 
18:25	1.3	1.3	1.3	52	-12.2	0	2	248	0.00	30.375 
18:30	1.1	1.1	1.1	53	-12.0	0	1	248	0.00	30.379 
18:35	1.1	1.1	1.1	53	-12.0	0	1	248	0.00	30.379 
18:40	0.9	0.9	0.9	54	-11.8	0	2	248	0.00	30.379 
18:45	0.9	0.9	0.9	54	-11.8	0	2	248	0.00	30.377 
18:50	0.9	0.9	0.9	54	-11.8	0	2	248	0.00	30.377 
18:55	0.9	0.9	0.9	55	-11.4	0	2	248	0.00	30.377 
19:00	0.7	0.7	0.7	55	-11.6	0	3	248	0.00	30.378 
19:05	0.7	0.7	0.7	56	-11.3	0	2	248	0.00	30.378 
19:10	0.7	0.7	0.7	56	-11.3	0	2	248	0.00	30.378 
19:15	0.5	0.5	0.5	57	-11.1	0	4	248	0.00	30.374 
19:20	0.5	0.5	0.5	57	-11.1	0	2	248	0.00	30.374 
19:25	0.5	0.5	0.5	57	-11.1	0	2	248	0.00	30.374 
19:30	0.5	0.5	0.5	57	-11.1	0	2	248	0.00	30.371 
19:35	0.3	0.3	0.3	58	-10.9	0	2	248	0.00	30.371 
19:40	0.3	0.3	0.3	58	-10.9	0	2	248	0.00	30.371 
19:45	0.3	0.3	0.3	58	-10.9	0	2	248	0.00	30.370 
19:50	0.1	0.1	0.1	58	-11.1	0	2	248	0.00	30.370 
19:55	0.1	0.1	0.1	59	-10.8	0	2	248	0.00	30.370 
20:00	0.1	0.1	0.1	59	-10.8	0	2	248	0.00	30.368 
20:05	0.1	0.1	0.1	59	-10.8	0	2	248	0.00	30.368 
20:10	0.0	0.0	0.0	60	-10.5	0	3	248	0.00	30.368 
20:15	0.0	0.0	0.0	60	-10.5	0	3	248	0.00	30.366 
20:20	-0.2	-0.2	-0.2	60	-10.7	0	2	248	0.00	30.366 
20:25	-0.2	-0.2	-0.2	60	-10.7	0	2	248	0.00	30.366 
20:30	-0.4	-0.4	-0.4	61	-10.6	0	1	248	0.00	30.357 
20:35	-0.4	-0.4	-0.4	61	-10.6	0	2	248	0.00	30.357 
20:40	-0.4	-0.4	-0.4	61	-10.6	0	2	248	0.00	30.357 
20:45	-0.6	-0.6	-0.6	62	-10.5	0	1	248	0.00	30.360 
20:50	-0.6	-0.6	-0.6	62	-10.5	0	2	248	0.00	30.360 
20:55	-0.8	-0.8	-0.8	62	-10.6	0	1	248	0.00	30.360 
21:00	-0.8	-0.8	-0.8	63	-10.3	0	2	248	0.00	30.361 
21:05	-0.8	-0.8	-0.8	63	-10.3	0	2	248	0.00	30.361 
21:10	-0.8	-0.8	-0.8	63	-10.3	0	2	248	0.00	30.361 
21:15	-0.8	-0.8	-0.8	63	-10.3	0	2	248	0.00	30.354 
21:20	-0.8	-0.8	-0.8	63	-10.3	0	1	248	0.00	30.354 
21:25	-0.8	-0.8	-0.8	64	-10.0	1	3	248	0.00	30.354 
21:30	-0.8	-0.8	-0.8	64	-10.0	0	2	248	0.00	30.354 
21:35	-1.0	-1.0	-1.0	64	-10.2	0	2	248	0.00	30.354 
21:40	-1.0	-1.0	-1.0	64	-10.2	0	3	248	0.00	30.354 
21:45	-1.0	-1.0	-1.0	65	-9.9	0	1	248	0.00	30.349 
21:50	-1.0	-1.0	-1.0	65	-9.9	0	2	248	0.00	30.349 
21:55	-1.0	-1.0	-1.0	65	-9.9	0	2	248	0.00	30.349 
22:00	-1.0	-1.0	-1.0	65	-9.9	0	3	248	0.00	30.348 
22:05	-1.0	-1.0	-1.0	65	-9.9	0	1	248	0.00	30.348 
22:10	-1.0	-1.0	-1.0	65	-9.9	0	2	248	0.00	30.348 
22:15	-1.0	-1.0	-1.0	66	-9.6	0	2	248	0.00	30.349 
22:20	-1.0	-1.0	-1.0	66	-9.6	1	3	248	0.00	30.349 
22:25	-0.8	-0.8	-0.8	66	-9.4	1	3	248	0.00	30.349 
22:30	-0.6	-0.6	-0.6	66	-9.2	1	5	248	0.00	30.350 
22:35	-0.6	-0.6	-0.6	66	-9.2	1	4	248	0.00	30.350 
22:40	-0.6	-0.6	-0.6	66	-9.2	0	3	248	0.00	30.350 
22:45	-0.4	-0.4	-0.4	67	-8.7	1	4	248	0.00	30.344 
22:50	-0.4	-0.4	-0.4	67	-8.7	1	4	248	0.00	30.344 
22:55	-0.4	-0.4	-0.4	67	-8.7	0	3	248	0.00	30.344 
23:00	-0.2	-0.2	-0.2	67	-8.5	1	3	248	0.00	30.342 
23:05	-0.2	-0.2	-0.2	67	-8.5	1	4	248	0.00	30.342 
23:10	-0.2	-0.2	-0.2	67	-8.5	0	3	248	0.00	30.342 
23:15	-0.2	-0.2	-0.2	66	-8.8	0	2	248	0.00	30.340 
23:20	-0.2	-0.2	-0.2	67	-8.5	0	3	248	0.00	30.340 
23:25	0.0	0.0	0.0	67	-8.3	1	3	248	0.00	30.340 
23:30	0.0	0.0	0.0	66	-8.6	1	3	248	0.00	30.339 
23:35	0.0	0.0	0.0	66	-8.6	1	3	248	0.00	30.339 
23:40	0.0	0.0	0.0	66	-8.6	1	3	248	0.00	30.339 
23:45	0.0	0.0	0.0	66	-8.6	1	2	248	0.00	30.334 
23:50	-0.2	-0.2	-0.2	66	-8.8	1	3	248	0.00	30.334 
23:55	-0.2	-0.2	-0.2	66	-8.8	0	2	248	0.00	30.334 

CoCoRaHS
IN-AL-39
A2 Web Hosting
Creative Commons License
GoDaddy
search engine by freefind advanced

loaded 2018-11-12 19:11:13 • last modified 2010-11-18 10:43:29
Privacy PolicyDisclaimer
• wx.awcolley.com is powered by PmWiki v.2002016 •
• all content (unless otherwise noted) © 2018 A W Colley